createdAt,value
2023-01-02T00:02:03.204Z,2.55
2023-01-02T00:06:06.905Z,1.90
2023-01-02T00:10:11.481Z,1.70
2023-01-02T00:14:14.861Z,2.40
2023-01-02T00:18:17.819Z,1.90
2023-01-02T00:22:20.721Z,1.90
2023-01-02T00:26:24.867Z,1.80
2023-01-02T00:30:31.090Z,2.28
2023-01-02T00:34:39.077Z,2.10
2023-01-02T00:38:42.047Z,2.10
2023-01-02T00:42:46.181Z,1.85
2023-01-02T00:46:50.152Z,1.63
2023-01-02T00:50:52.881Z,2.38
2023-01-02T00:54:56.252Z,2.03
2023-01-02T00:59:00.708Z,2.00
2023-01-02T01:03:03.714Z,2.20
2023-01-02T01:07:07.346Z,2.00
2023-01-02T01:11:13.146Z,1.90
2023-01-02T01:15:17.352Z,1.75
2023-01-02T01:19:20.382Z,2.50
2023-01-02T01:23:23.903Z,1.90
2023-01-02T01:27:26.783Z,1.95
2023-01-02T01:31:30.887Z,2.22
2023-01-02T01:35:34.665Z,2.10
2023-01-02T01:43:44.864Z,2.28
2023-01-02T01:47:52.748Z,2.28
2023-01-02T01:51:57.166Z,1.88
2023-01-02T01:56:03.256Z,2.53
2023-01-02T02:00:08.406Z,2.10
2023-01-02T02:04:12.967Z,2.33
2023-01-02T02:08:18.922Z,2.20
2023-01-02T02:12:27.692Z,1.92
2023-01-02T02:16:37.927Z,2.00
2023-01-02T02:25:01.958Z,1.70
2023-01-02T02:29:27.105Z,2.03
2023-01-02T02:33:39.278Z,2.20
2023-01-02T02:37:48.100Z,2.03
2023-01-02T02:41:58.453Z,1.98
2023-01-02T02:46:06.239Z,2.20
2023-01-02T02:50:13.321Z,2.63
2023-01-02T02:54:20.037Z,2.20
2023-01-02T02:58:23.854Z,2.08
2023-01-02T03:06:45.774Z,2.03
2023-01-02T03:10:53.204Z,2.10
2023-01-02T03:14:59.754Z,1.70
2023-01-02T03:19:06.291Z,2.20
2023-01-02T03:23:14.351Z,1.75
2023-01-02T03:27:22.036Z,2.17
2023-01-02T03:31:26.906Z,2.33
2023-01-02T03:35:34.483Z,2.05
2023-01-02T03:39:42.678Z,2.17
2023-01-02T03:43:52.972Z,1.77
2023-01-02T03:48:03.314Z,2.08
2023-01-02T03:52:06.372Z,1.95
2023-01-02T03:56:17.758Z,1.55
2023-01-02T04:00:21.711Z,2.05
2023-01-02T04:04:32.209Z,1.63
2023-01-02T04:08:38.772Z,2.42
2023-01-02T04:12:46.997Z,1.73
2023-01-02T04:16:51.025Z,2.05
2023-01-02T04:20:56.028Z,1.70
2023-01-02T04:25:03.315Z,2.10
2023-01-02T04:29:08.049Z,2.22
2023-01-02T04:33:11.845Z,1.88
2023-01-02T04:37:30.932Z,2.13
2023-01-02T04:41:35.255Z,2.90
2023-01-02T04:45:39.430Z,1.77
2023-01-02T04:49:42.134Z,1.90
2023-01-02T04:53:45.188Z,1.45
2023-01-02T04:57:48.192Z,1.92
2023-01-02T05:01:52.334Z,2.20
2023-01-02T05:06:01.501Z,1.95
2023-01-02T05:10:04.771Z,1.95
2023-01-02T05:14:08.087Z,2.42
2023-01-02T05:18:12.597Z,2.10
2023-01-02T05:22:32.912Z,1.77
2023-01-02T05:26:35.874Z,1.73
2023-01-02T05:30:39.198Z,1.80
2023-01-02T05:34:43.287Z,2.15
2023-01-02T05:38:46.189Z,2.97
2023-01-02T05:42:49.295Z,2.22
2023-01-02T05:46:52.471Z,1.85
2023-01-02T05:50:56.658Z,1.88
2023-01-02T05:54:59.765Z,1.80
2023-01-02T05:59:02.484Z,1.75
2023-01-02T06:03:05.382Z,2.10
2023-01-02T06:07:09.540Z,2.25
2023-01-02T06:11:12.652Z,2.65
2023-01-02T06:15:15.323Z,1.90
2023-01-02T06:19:18.045Z,2.28
2023-01-02T06:23:22.987Z,1.55
2023-01-02T06:27:25.669Z,4.38
2023-01-02T06:31:29.861Z,3.97
2023-01-02T06:35:33.073Z,2.15
2023-01-02T06:39:37.175Z,2.65
2023-01-02T06:43:44.117Z,2.22
2023-01-02T06:47:46.916Z,1.95
2023-01-02T06:51:50.063Z,1.98
2023-01-02T06:55:55.916Z,2.30
2023-01-02T06:59:58.714Z,2.53
2023-01-02T07:04:01.628Z,2.55
2023-01-02T07:08:04.620Z,2.70
2023-01-02T07:12:08.735Z,2.17
2023-01-02T07:16:13.273Z,2.22
2023-01-02T07:20:16.191Z,2.28
2023-01-02T07:24:18.860Z,2.70
2023-01-02T07:28:23.362Z,2.38
2023-01-02T07:32:27.711Z,2.85
2023-01-02T07:36:30.677Z,2.35
2023-01-02T07:40:33.611Z,2.35
2023-01-02T07:44:37.838Z,1.83
2023-01-02T07:48:40.680Z,3.20
2023-01-02T07:52:43.574Z,2.40
2023-01-02T07:56:46.779Z,2.30
2023-01-02T08:00:51.063Z,1.70
2023-01-02T08:04:53.742Z,2.28
2023-01-02T08:08:56.572Z,2.20
2023-01-02T08:12:59.489Z,2.42
2023-01-02T08:17:03.588Z,2.10
2023-01-02T08:21:06.882Z,2.25
2023-01-02T08:25:11.334Z,2.65
2023-01-02T08:29:14.298Z,2.58
2023-01-02T08:33:18.418Z,2.42
2023-01-02T08:37:21.763Z,2.70
2023-01-02T08:41:34.630Z,2.75
2023-01-02T08:45:37.379Z,2.60
2023-01-02T08:49:41.449Z,2.88
2023-01-02T08:53:44.398Z,3.20
2023-01-02T08:57:47.033Z,3.00
2023-01-02T09:01:49.808Z,3.00
2023-01-02T09:05:55.948Z,4.10
2023-01-02T09:09:58.659Z,3.20
2023-01-02T09:14:02.331Z,3.72
2023-01-02T09:18:05.078Z,3.03
2023-01-02T09:22:09.488Z,2.95
2023-01-02T09:26:13.247Z,3.00
2023-01-02T09:38:22.961Z,3.85
2023-01-02T09:42:25.825Z,4.07
2023-01-02T09:46:33.519Z,3.00
2023-01-02T09:50:36.927Z,3.60
2023-01-02T09:54:41.205Z,3.47
2023-01-02T09:58:49.162Z,4.18
2023-01-02T10:03:08.204Z,4.05
2023-01-02T10:07:14.927Z,4.15
2023-01-02T10:11:27.157Z,5.50
2023-01-02T10:15:30.751Z,3.60
2023-01-02T10:19:42.018Z,4.60
2023-01-02T10:23:48.575Z,3.70
2023-01-02T10:27:57.559Z,3.95
2023-01-02T10:32:01.866Z,3.65
2023-01-02T10:36:24.330Z,4.03
2023-01-02T10:44:39.981Z,4.78
2023-01-02T10:48:48.371Z,4.40
2023-01-02T10:52:59.760Z,4.07
2023-01-02T10:57:02.606Z,9.23
2023-01-02T11:01:08.791Z,5.20
2023-01-02T11:05:20.733Z,5.25
2023-01-02T11:09:32.280Z,4.50
2023-01-02T11:13:51.933Z,5.07
2023-01-02T11:17:59.815Z,4.97
2023-01-02T11:22:02.610Z,7.03
2023-01-02T11:26:06.858Z,6.30
2023-01-02T11:30:21.901Z,5.40
2023-01-02T11:34:27.601Z,4.50
2023-01-02T11:38:44.215Z,4.43
2023-01-02T11:43:07.658Z,6.18
2023-01-02T11:47:11.975Z,5.18
2023-01-02T11:51:18.039Z,5.03
2023-01-02T11:55:30.795Z,4.43
2023-01-02T11:59:37.641Z,4.63
2023-01-02T12:03:40.886Z,5.03
2023-01-02T12:07:46.772Z,4.25
2023-01-02T12:12:02.235Z,3.85
2023-01-02T12:16:17.194Z,3.92
2023-01-02T12:20:28.896Z,3.97
2023-01-02T12:24:59.766Z,4.80
2023-01-02T12:29:46.838Z,4.90
2023-01-02T12:33:47.464Z,4.20
2023-01-02T12:37:55.135Z,4.72
2023-01-02T12:42:04.856Z,3.63
2023-01-02T12:46:15.808Z,4.10
2023-01-02T12:50:27.125Z,4.53
2023-01-02T12:55:00.208Z,4.43
2023-01-02T12:59:26.285Z,4.32
2023-01-02T13:03:43.211Z,4.70
2023-01-02T13:07:48.824Z,3.80
2023-01-02T13:12:00.577Z,3.50
2023-01-02T13:16:22.617Z,2.20
2023-01-02T13:20:34.076Z,1.50
2023-01-02T13:24:37.166Z,1.80
2023-01-02T13:28:43.079Z,1.88
2023-01-02T13:32:49.122Z,2.00
2023-01-02T13:36:53.036Z,1.30
2023-01-02T13:40:58.370Z,1.73
2023-01-02T13:45:01.901Z,1.70
2023-01-02T13:49:07.352Z,1.58
2023-01-02T13:53:28.309Z,1.33
2023-01-02T13:57:33.966Z,1.20
2023-01-02T14:02:14.891Z,1.00
2023-01-02T14:06:33.819Z,1.10
2023-01-02T14:10:41.872Z,0.75
2023-01-02T14:14:50.739Z,0.90
2023-01-02T14:19:14.966Z,0.90
2023-01-02T14:23:28.441Z,1.50
2023-01-02T14:27:33.922Z,1.30
2023-01-02T14:31:43.654Z,1.02
2023-01-02T14:35:51.977Z,1.15
2023-01-02T14:39:57.704Z,1.50
2023-01-02T14:44:01.069Z,1.50
2023-01-02T14:48:08.854Z,1.33
2023-01-02T14:52:15.110Z,1.27
2023-01-02T14:56:40.385Z,1.60
2023-01-02T15:00:49.038Z,1.45
2023-01-02T15:04:54.451Z,2.83
2023-01-02T15:09:02.103Z,2.20
2023-01-02T15:13:07.496Z,1.90
2023-01-02T15:17:12.279Z,2.00
2023-01-02T15:21:15.941Z,2.28
2023-01-02T15:25:32.250Z,2.95
2023-01-02T15:33:39.472Z,3.30
2023-01-02T15:37:43.700Z,2.72
2023-01-02T15:41:49.311Z,2.22
2023-01-02T15:45:54.303Z,2.40
2023-01-02T15:49:57.643Z,1.90
2023-01-02T15:54:03.472Z,2.00
2023-01-02T15:58:25.516Z,1.40
2023-01-02T16:02:37.703Z,2.90
2023-01-02T16:06:42.759Z,2.75
2023-01-02T16:10:50.732Z,1.90
2023-01-02T16:14:56.152Z,2.38
2023-01-02T16:19:01.648Z,1.88
2023-01-02T16:23:06.069Z,1.50
2023-01-02T16:27:13.878Z,1.80
2023-01-02T16:31:18.242Z,1.60
2023-01-02T16:35:25.441Z,1.80
2023-01-02T16:39:42.527Z,1.25
2023-01-02T16:43:47.833Z,2.38
2023-01-02T16:47:51.254Z,1.60
2023-01-02T16:51:55.919Z,1.35
2023-01-02T16:55:59.598Z,1.33
2023-01-02T17:00:03.331Z,1.30
2023-01-02T17:04:06.240Z,2.63
2023-01-02T17:08:10.474Z,2.53
2023-01-02T17:12:13.997Z,3.45
2023-01-02T17:16:17.217Z,2.45
2023-01-02T17:20:21.081Z,1.90
2023-01-02T17:24:25.316Z,1.48
2023-01-02T17:28:30.777Z,2.35
2023-01-02T17:32:33.987Z,2.13
2023-01-02T17:36:37.184Z,2.30
2023-01-02T17:40:41.761Z,1.70
2023-01-02T17:44:45.461Z,2.00
2023-01-02T17:48:48.470Z,3.42
2023-01-02T17:52:51.394Z,2.72
2023-01-02T17:56:56.595Z,1.75
2023-01-02T18:01:01.146Z,1.80
2023-01-02T18:05:04.252Z,2.10
2023-01-02T18:09:07.784Z,1.52
2023-01-02T18:13:18.962Z,2.90
2023-01-02T18:17:30.042Z,1.90
2023-01-02T18:21:34.198Z,1.90
2023-01-02T18:25:37.420Z,2.90
2023-01-02T18:29:45.108Z,2.78
2023-01-02T18:33:48.359Z,1.60
2023-01-02T18:37:52.735Z,1.95
2023-01-02T18:41:59.652Z,1.88
2023-01-02T18:46:12.845Z,1.95
2023-01-02T18:50:33.617Z,1.60
2023-01-02T18:54:36.425Z,2.08
2023-01-02T18:58:43.366Z,3.22
2023-01-02T19:02:55.808Z,3.17
2023-01-02T19:07:02.898Z,2.50
2023-01-02T19:11:28.880Z,2.17
2023-01-02T19:15:40.658Z,1.80
2023-01-02T19:19:45.811Z,2.38
2023-01-02T19:23:53.742Z,2.42
2023-01-02T19:27:57.959Z,2.20
2023-01-02T19:32:05.046Z,2.22
2023-01-02T19:36:15.556Z,2.58
2023-01-02T19:40:21.149Z,2.50
2023-01-02T19:44:24.678Z,2.20
2023-01-02T19:48:28.159Z,2.35
2023-01-02T19:52:33.001Z,2.10
2023-01-02T19:56:36.901Z,2.75
2023-01-02T20:04:43.243Z,2.67
2023-01-02T20:08:47.406Z,2.80
2023-01-02T20:12:51.280Z,2.10
2023-01-02T20:16:54.108Z,2.53
2023-01-02T20:20:57.580Z,2.67
2023-01-02T20:25:02.032Z,3.65
2023-01-02T20:29:05.709Z,2.60
2023-01-02T20:33:11.435Z,2.58
2023-01-02T20:37:21.247Z,2.83
2023-01-02T20:41:25.451Z,2.08
2023-01-02T20:45:28.617Z,2.72
2023-01-02T20:49:31.986Z,2.67
2023-01-02T20:53:35.829Z,2.40
2023-01-02T20:57:44.060Z,2.72
2023-01-02T21:01:48.228Z,2.60
2023-01-02T21:05:53.929Z,3.10
2023-01-02T21:09:59.145Z,2.72
2023-01-02T21:14:04.483Z,2.63
2023-01-02T21:18:07.652Z,2.95
2023-01-02T21:22:10.793Z,2.90
2023-01-02T21:26:15.360Z,2.70
2023-01-02T21:30:20.552Z,2.70
2023-01-02T21:34:33.314Z,2.60
2023-01-02T21:38:39.950Z,2.28
2023-01-02T21:42:46.715Z,3.13
2023-01-02T21:46:53.999Z,2.80
2023-01-02T21:51:00.906Z,2.50
2023-01-02T21:55:07.423Z,2.45
2023-01-02T21:59:10.960Z,2.35
2023-01-02T22:03:15.832Z,3.10
2023-01-02T22:07:31.672Z,2.95
2023-01-02T22:11:52.756Z,3.20
2023-01-02T22:15:59.415Z,2.65
2023-01-02T22:20:04.481Z,4.18
2023-01-02T22:24:08.419Z,3.92
2023-01-02T22:32:16.122Z,6.38
2023-01-02T22:36:20.450Z,3.22
2023-01-02T22:40:24.295Z,3.10
2023-01-02T22:44:28.080Z,3.00
2023-01-02T22:48:38.425Z,3.60
2023-01-02T22:52:43.638Z,3.72
2023-01-02T22:56:47.506Z,3.28
2023-01-02T23:00:58.848Z,3.33
2023-01-02T23:05:05.132Z,4.00
2023-01-02T23:09:12.010Z,4.82
2023-01-02T23:13:15.172Z,4.32
2023-01-02T23:17:35.725Z,4.78
2023-01-02T23:21:40.668Z,7.05
2023-01-02T23:25:55.954Z,5.28
2023-01-02T23:29:59.325Z,4.60
2023-01-02T23:34:04.329Z,5.07
2023-01-02T23:38:08.216Z,4.20
2023-01-02T23:42:15.887Z,4.70
2023-01-02T23:46:26.071Z,4.53
2023-01-02T23:54:33.305Z,4.53
2023-01-02T23:58:39.788Z,5.10
